sensor_id;sensor_type;location;lat;lon;timestamp;P1;durP1;ratioP1;P2;durP2;ratioP2
3700;SDS011;1866;48.374;10.766;2023-04-28T00:01:53;103.93;;;7.77;;
3700;SDS011;1866;48.374;10.766;2023-04-28T00:04:20;101.30;;;7.73;;
3700;SDS011;1866;48.374;10.766;2023-04-28T00:06:46;100.37;;;7.37;;
3700;SDS011;1866;48.374;10.766;2023-04-28T00:09:13;100.57;;;7.23;;
3700;SDS011;1866;48.374;10.766;2023-04-28T00:11:42;102.97;;;7.03;;
3700;SDS011;1866;48.374;10.766;2023-04-28T00:14:10;101.47;;;6.87;;
3700;SDS011;1866;48.374;10.766;2023-04-28T00:16:36;98.90;;;6.53;;
3700;SDS011;1866;48.374;10.766;2023-04-28T00:19:03;100.47;;;7.27;;
3700;SDS011;1866;48.374;10.766;2023-04-28T00:21:30;99.40;;;6.80;;
3700;SDS011;1866;48.374;10.766;2023-04-28T00:23:57;99.00;;;6.47;;
3700;SDS011;1866;48.374;10.766;2023-04-28T00:26:24;104.20;;;7.60;;
3700;SDS011;1866;48.374;10.766;2023-04-28T00:28:52;100.10;;;6.53;;
3700;SDS011;1866;48.374;10.766;2023-04-28T00:31:19;98.90;;;6.20;;
3700;SDS011;1866;48.374;10.766;2023-04-28T00:33:46;103.63;;;7.33;;
3700;SDS011;1866;48.374;10.766;2023-04-28T00:36:13;99.87;;;6.73;;
3700;SDS011;1866;48.374;10.766;2023-04-28T00:38:40;100.27;;;6.90;;
3700;SDS011;1866;48.374;10.766;2023-04-28T00:41:08;98.67;;;6.80;;
3700;SDS011;1866;48.374;10.766;2023-04-28T00:43:42;99.37;;;6.83;;
3700;SDS011;1866;48.374;10.766;2023-04-28T00:46:12;100.07;;;7.03;;
3700;SDS011;1866;48.374;10.766;2023-04-28T00:48:45;98.50;;;6.13;;
3700;SDS011;1866;48.374;10.766;2023-04-28T00:51:12;99.57;;;6.70;;
3700;SDS011;1866;48.374;10.766;2023-04-28T00:53:39;99.40;;;6.70;;
3700;SDS011;1866;48.374;10.766;2023-04-28T00:56:06;98.50;;;6.40;;
3700;SDS011;1866;48.374;10.766;2023-04-28T00:58:33;99.07;;;6.50;;
3700;SDS011;1866;48.374;10.766;2023-04-28T01:01:03;99.37;;;6.97;;
3700;SDS011;1866;48.374;10.766;2023-04-28T01:03:33;99.97;;;6.43;;
3700;SDS011;1866;48.374;10.766;2023-04-28T01:06:03;100.20;;;7.40;;
3700;SDS011;1866;48.374;10.766;2023-04-28T01:08:30;101.17;;;7.53;;
3700;SDS011;1866;48.374;10.766;2023-04-28T01:10:58;98.97;;;7.00;;
3700;SDS011;1866;48.374;10.766;2023-04-28T01:13:26;100.57;;;6.77;;
3700;SDS011;1866;48.374;10.766;2023-04-28T01:15:52;101.80;;;7.53;;
3700;SDS011;1866;48.374;10.766;2023-04-28T01:18:21;101.27;;;7.17;;
3700;SDS011;1866;48.374;10.766;2023-04-28T01:20:49;100.47;;;6.70;;
3700;SDS011;1866;48.374;10.766;2023-04-28T01:23:16;101.23;;;7.30;;
3700;SDS011;1866;48.374;10.766;2023-04-28T01:25:44;100.57;;;7.53;;
3700;SDS011;1866;48.374;10.766;2023-04-28T01:28:11;100.33;;;7.60;;
3700;SDS011;1866;48.374;10.766;2023-04-28T01:30:38;109.53;;;7.83;;
3700;SDS011;1866;48.374;10.766;2023-04-28T01:33:05;99.60;;;7.30;;
3700;SDS011;1866;48.374;10.766;2023-04-28T01:35:31;99.47;;;6.60;;
3700;SDS011;1866;48.374;10.766;2023-04-28T01:37:58;99.27;;;7.00;;
3700;SDS011;1866;48.374;10.766;2023-04-28T01:40:26;101.17;;;7.50;;
3700;SDS011;1866;48.374;10.766;2023-04-28T01:42:54;100.77;;;7.30;;
3700;SDS011;1866;48.374;10.766;2023-04-28T01:45:21;99.33;;;7.00;;
3700;SDS011;1866;48.374;10.766;2023-04-28T01:47:48;99.60;;;6.80;;
3700;SDS011;1866;48.374;10.766;2023-04-28T01:50:14;99.90;;;7.37;;
3700;SDS011;1866;48.374;10.766;2023-04-28T01:52:41;103.13;;;7.60;;
3700;SDS011;1866;48.374;10.766;2023-04-28T01:55:08;100.07;;;7.30;;
3700;SDS011;1866;48.374;10.766;2023-04-28T01:57:35;100.20;;;7.33;;
3700;SDS011;1866;48.374;10.766;2023-04-28T02:00:04;101.10;;;7.30;;
3700;SDS011;1866;48.374;10.766;2023-04-28T02:02:33;104.77;;;7.60;;
3700;SDS011;1866;48.374;10.766;2023-04-28T02:05:00;100.37;;;7.17;;
3700;SDS011;1866;48.374;10.766;2023-04-28T02:07:27;102.70;;;7.83;;
3700;SDS011;1866;48.374;10.766;2023-04-28T02:09:54;102.53;;;7.93;;
3700;SDS011;1866;48.374;10.766;2023-04-28T02:12:21;100.53;;;7.40;;
3700;SDS011;1866;48.374;10.766;2023-04-28T02:14:48;103.77;;;8.67;;
3700;SDS011;1866;48.374;10.766;2023-04-28T02:17:16;102.40;;;8.30;;
3700;SDS011;1866;48.374;10.766;2023-04-28T02:19:43;102.27;;;8.63;;
3700;SDS011;1866;48.374;10.766;2023-04-28T02:22:10;102.67;;;8.37;;
3700;SDS011;1866;48.374;10.766;2023-04-28T02:24:37;99.87;;;7.90;;
3700;SDS011;1866;48.374;10.766;2023-04-28T02:27:04;107.57;;;7.90;;
3700;SDS011;1866;48.374;10.766;2023-04-28T02:29:31;103.30;;;7.97;;
3700;SDS011;1866;48.374;10.766;2023-04-28T02:31:58;109.37;;;8.00;;
3700;SDS011;1866;48.374;10.766;2023-04-28T02:34:26;100.20;;;7.20;;
3700;SDS011;1866;48.374;10.766;2023-04-28T02:36:53;100.37;;;7.93;;
3700;SDS011;1866;48.374;10.766;2023-04-28T02:39:20;101.53;;;7.50;;
3700;SDS011;1866;48.374;10.766;2023-04-28T02:41:49;100.87;;;8.90;;
3700;SDS011;1866;48.374;10.766;2023-04-28T02:44:16;104.23;;;8.23;;
3700;SDS011;1866;48.374;10.766;2023-04-28T02:46:43;101.37;;;8.33;;
3700;SDS011;1866;48.374;10.766;2023-04-28T02:49:10;102.60;;;7.50;;
3700;SDS011;1866;48.374;10.766;2023-04-28T02:51:38;100.67;;;8.20;;
3700;SDS011;1866;48.374;10.766;2023-04-28T02:54:05;100.47;;;7.70;;
3700;SDS011;1866;48.374;10.766;2023-04-28T02:56:32;101.17;;;8.10;;
3700;SDS011;1866;48.374;10.766;2023-04-28T02:58:59;102.23;;;8.13;;
3700;SDS011;1866;48.374;10.766;2023-04-28T03:01:26;106.80;;;8.90;;
3700;SDS011;1866;48.374;10.766;2023-04-28T03:03:53;102.47;;;9.00;;
3700;SDS011;1866;48.374;10.766;2023-04-28T03:06:20;103.50;;;8.67;;
3700;SDS011;1866;48.374;10.766;2023-04-28T03:08:48;100.57;;;8.40;;
3700;SDS011;1866;48.374;10.766;2023-04-28T03:11:15;103.13;;;9.13;;
3700;SDS011;1866;48.374;10.766;2023-04-28T03:13:42;105.47;;;8.90;;
3700;SDS011;1866;48.374;10.766;2023-04-28T03:16:09;102.13;;;9.00;;
3700;SDS011;1866;48.374;10.766;2023-04-28T03:18:35;104.13;;;8.93;;
3700;SDS011;1866;48.374;10.766;2023-04-28T03:21:02;101.77;;;8.37;;
3700;SDS011;1866;48.374;10.766;2023-04-28T03:23:29;106.20;;;9.87;;
3700;SDS011;1866;48.374;10.766;2023-04-28T03:25:57;103.10;;;7.50;;
3700;SDS011;1866;48.374;10.766;2023-04-28T03:28:24;101.43;;;8.63;;
3700;SDS011;1866;48.374;10.766;2023-04-28T03:30:51;101.83;;;8.63;;
3700;SDS011;1866;48.374;10.766;2023-04-28T03:33:18;100.67;;;8.10;;
3700;SDS011;1866;48.374;10.766;2023-04-28T03:35:45;102.40;;;8.70;;
3700;SDS011;1866;48.374;10.766;2023-04-28T03:38:12;103.00;;;8.63;;
3700;SDS011;1866;48.374;10.766;2023-04-28T03:40:39;102.33;;;8.30;;
3700;SDS011;1866;48.374;10.766;2023-04-28T03:43:07;100.10;;;7.87;;
3700;SDS011;1866;48.374;10.766;2023-04-28T03:45:33;100.30;;;7.90;;
3700;SDS011;1866;48.374;10.766;2023-04-28T03:48:00;99.17;;;7.60;;
3700;SDS011;1866;48.374;10.766;2023-04-28T03:50:27;101.80;;;8.80;;
3700;SDS011;1866;48.374;10.766;2023-04-28T03:52:54;101.07;;;8.33;;
3700;SDS011;1866;48.374;10.766;2023-04-28T03:55:21;101.37;;;8.43;;
3700;SDS011;1866;48.374;10.766;2023-04-28T03:57:48;99.67;;;7.60;;
3700;SDS011;1866;48.374;10.766;2023-04-28T04:00:16;106.80;;;8.73;;
3700;SDS011;1866;48.374;10.766;2023-04-28T04:02:43;99.80;;;8.07;;
3700;SDS011;1866;48.374;10.766;2023-04-28T04:05:10;101.50;;;8.90;;
3700;SDS011;1866;48.374;10.766;2023-04-28T04:07:37;100.27;;;8.07;;
3700;SDS011;1866;48.374;10.766;2023-04-28T04:10:04;100.13;;;8.10;;
3700;SDS011;1866;48.374;10.766;2023-04-28T04:12:32;100.60;;;7.80;;
3700;SDS011;1866;48.374;10.766;2023-04-28T04:14:59;102.53;;;8.77;;
3700;SDS011;1866;48.374;10.766;2023-04-28T04:17:27;99.60;;;8.00;;
3700;SDS011;1866;48.374;10.766;2023-04-28T04:19:54;100.70;;;7.93;;
3700;SDS011;1866;48.374;10.766;2023-04-28T04:22:20;100.67;;;8.27;;
3700;SDS011;1866;48.374;10.766;2023-04-28T04:24:47;101.17;;;7.47;;
3700;SDS011;1866;48.374;10.766;2023-04-28T04:27:15;101.77;;;8.13;;
3700;SDS011;1866;48.374;10.766;2023-04-28T04:29:42;99.47;;;7.97;;
3700;SDS011;1866;48.374;10.766;2023-04-28T04:32:08;101.30;;;7.60;;
3700;SDS011;1866;48.374;10.766;2023-04-28T04:34:36;102.67;;;8.47;;
3700;SDS011;1866;48.374;10.766;2023-04-28T04:37:03;101.00;;;8.37;;
3700;SDS011;1866;48.374;10.766;2023-04-28T04:39:30;100.87;;;7.87;;
3700;SDS011;1866;48.374;10.766;2023-04-28T04:41:57;100.27;;;7.80;;
3700;SDS011;1866;48.374;10.766;2023-04-28T04:44:25;101.07;;;8.50;;
3700;SDS011;1866;48.374;10.766;2023-04-28T04:46:52;100.30;;;8.30;;
3700;SDS011;1866;48.374;10.766;2023-04-28T04:49:19;100.23;;;8.10;;
3700;SDS011;1866;48.374;10.766;2023-04-28T04:51:47;101.67;;;8.47;;
3700;SDS011;1866;48.374;10.766;2023-04-28T04:54:14;100.27;;;7.90;;
3700;SDS011;1866;48.374;10.766;2023-04-28T04:56:40;101.90;;;8.77;;
3700;SDS011;1866;48.374;10.766;2023-04-28T04:59:07;101.77;;;8.50;;
3700;SDS011;1866;48.374;10.766;2023-04-28T05:01:34;104.07;;;8.67;;
3700;SDS011;1866;48.374;10.766;2023-04-28T05:04:01;101.03;;;8.40;;
3700;SDS011;1866;48.374;10.766;2023-04-28T05:06:28;102.07;;;8.27;;
3700;SDS011;1866;48.374;10.766;2023-04-28T05:08:57;99.30;;;7.77;;
3700;SDS011;1866;48.374;10.766;2023-04-28T05:11:24;100.17;;;7.87;;
3700;SDS011;1866;48.374;10.766;2023-04-28T05:13:51;105.50;;;7.80;;
3700;SDS011;1866;48.374;10.766;2023-04-28T05:16:18;102.37;;;8.03;;
3700;SDS011;1866;48.374;10.766;2023-04-28T05:18:46;100.87;;;8.57;;
3700;SDS011;1866;48.374;10.766;2023-04-28T05:21:13;101.70;;;8.00;;
3700;SDS011;1866;48.374;10.766;2023-04-28T05:23:40;100.70;;;7.70;;
3700;SDS011;1866;48.374;10.766;2023-04-28T05:26:08;98.07;;;7.00;;
3700;SDS011;1866;48.374;10.766;2023-04-28T05:28:35;99.27;;;7.60;;
3700;SDS011;1866;48.374;10.766;2023-04-28T05:31:02;102.10;;;7.90;;
3700;SDS011;1866;48.374;10.766;2023-04-28T05:33:29;109.90;;;7.30;;
3700;SDS011;1866;48.374;10.766;2023-04-28T05:35:56;100.10;;;7.83;;
3700;SDS011;1866;48.374;10.766;2023-04-28T05:38:23;99.67;;;7.40;;
3700;SDS011;1866;48.374;10.766;2023-04-28T05:40:50;100.57;;;7.60;;
3700;SDS011;1866;48.374;10.766;2023-04-28T05:43:18;99.53;;;7.23;;
3700;SDS011;1866;48.374;10.766;2023-04-28T05:45:45;98.17;;;6.47;;
3700;SDS011;1866;48.374;10.766;2023-04-28T05:48:12;100.00;;;7.27;;
3700;SDS011;1866;48.374;10.766;2023-04-28T05:50:39;101.80;;;7.30;;
3700;SDS011;1866;48.374;10.766;2023-04-28T05:53:05;101.70;;;7.90;;
3700;SDS011;1866;48.374;10.766;2023-04-28T05:55:33;100.47;;;7.30;;
3700;SDS011;1866;48.374;10.766;2023-04-28T05:58:00;100.27;;;7.43;;
3700;SDS011;1866;48.374;10.766;2023-04-28T06:00:28;100.00;;;7.17;;
3700;SDS011;1866;48.374;10.766;2023-04-28T06:02:55;101.10;;;6.80;;
3700;SDS011;1866;48.374;10.766;2023-04-28T06:05:22;101.40;;;7.47;;
3700;SDS011;1866;48.374;10.766;2023-04-28T06:07:49;100.37;;;7.47;;
3700;SDS011;1866;48.374;10.766;2023-04-28T06:10:16;100.07;;;7.40;;
3700;SDS011;1866;48.374;10.766;2023-04-28T06:12:44;98.83;;;7.50;;
3700;SDS011;1866;48.374;10.766;2023-04-28T06:15:10;102.57;;;7.43;;
3700;SDS011;1866;48.374;10.766;2023-04-28T06:17:39;99.50;;;7.47;;
3700;SDS011;1866;48.374;10.766;2023-04-28T06:20:06;102.07;;;7.70;;
3700;SDS011;1866;48.374;10.766;2023-04-28T06:22:35;102.40;;;7.63;;
3700;SDS011;1866;48.374;10.766;2023-04-28T06:25:02;101.17;;;7.40;;
3700;SDS011;1866;48.374;10.766;2023-04-28T06:27:29;98.90;;;7.00;;
3700;SDS011;1866;48.374;10.766;2023-04-28T06:29:56;107.20;;;7.43;;
3700;SDS011;1866;48.374;10.766;2023-04-28T06:32:23;100.40;;;7.63;;
3700;SDS011;1866;48.374;10.766;2023-04-28T06:34:52;99.47;;;7.17;;
3700;SDS011;1866;48.374;10.766;2023-04-28T06:37:18;98.57;;;6.50;;
3700;SDS011;1866;48.374;10.766;2023-04-28T06:39:45;102.33;;;7.37;;
3700;SDS011;1866;48.374;10.766;2023-04-28T06:42:12;101.57;;;7.47;;
3700;SDS011;1866;48.374;10.766;2023-04-28T06:44:42;99.57;;;6.83;;
3700;SDS011;1866;48.374;10.766;2023-04-28T06:47:09;99.40;;;7.10;;
3700;SDS011;1866;48.374;10.766;2023-04-28T06:49:36;99.10;;;6.73;;
3700;SDS011;1866;48.374;10.766;2023-04-28T06:52:04;97.60;;;6.60;;
3700;SDS011;1866;48.374;10.766;2023-04-28T06:54:31;101.07;;;7.13;;
3700;SDS011;1866;48.374;10.766;2023-04-28T06:56:58;99.80;;;7.30;;
3700;SDS011;1866;48.374;10.766;2023-04-28T06:59:26;98.73;;;6.67;;
3700;SDS011;1866;48.374;10.766;2023-04-28T07:01:52;102.87;;;7.03;;
3700;SDS011;1866;48.374;10.766;2023-04-28T07:04:20;99.40;;;6.60;;
3700;SDS011;1866;48.374;10.766;2023-04-28T07:06:47;101.40;;;7.00;;
3700;SDS011;1866;48.374;10.766;2023-04-28T07:09:15;99.03;;;6.83;;
3700;SDS011;1866;48.374;10.766;2023-04-28T07:11:42;99.17;;;6.20;;
3700;SDS011;1866;48.374;10.766;2023-04-28T07:14:09;101.40;;;6.87;;
3700;SDS011;1866;48.374;10.766;2023-04-28T07:16:36;104.10;;;7.33;;
3700;SDS011;1866;48.374;10.766;2023-04-28T07:19:03;98.50;;;6.47;;
3700;SDS011;1866;48.374;10.766;2023-04-28T07:21:30;98.43;;;6.70;;
3700;SDS011;1866;48.374;10.766;2023-04-28T07:23:58;99.20;;;7.00;;
3700;SDS011;1866;48.374;10.766;2023-04-28T07:26:27;99.07;;;6.83;;
3700;SDS011;1866;48.374;10.766;2023-04-28T07:28:54;99.27;;;7.00;;
3700;SDS011;1866;48.374;10.766;2023-04-28T07:31:20;98.93;;;7.40;;
3700;SDS011;1866;48.374;10.766;2023-04-28T07:33:47;102.77;;;7.00;;
3700;SDS011;1866;48.374;10.766;2023-04-28T07:36:14;100.60;;;7.67;;
3700;SDS011;1866;48.374;10.766;2023-04-28T07:38:41;99.97;;;8.00;;
3700;SDS011;1866;48.374;10.766;2023-04-28T07:41:08;98.53;;;7.07;;
3700;SDS011;1866;48.374;10.766;2023-04-28T07:43:37;98.77;;;7.33;;
3700;SDS011;1866;48.374;10.766;2023-04-28T07:46:05;99.27;;;7.47;;
3700;SDS011;1866;48.374;10.766;2023-04-28T07:48:32;100.07;;;8.00;;
3700;SDS011;1866;48.374;10.766;2023-04-28T07:50:59;100.40;;;7.80;;
3700;SDS011;1866;48.374;10.766;2023-04-28T07:53:26;99.27;;;7.70;;
3700;SDS011;1866;48.374;10.766;2023-04-28T07:55:53;100.60;;;7.87;;
3700;SDS011;1866;48.374;10.766;2023-04-28T07:58:20;99.77;;;7.40;;
3700;SDS011;1866;48.374;10.766;2023-04-28T08:00:48;99.87;;;7.80;;
3700;SDS011;1866;48.374;10.766;2023-04-28T08:03:15;99.77;;;7.20;;
3700;SDS011;1866;48.374;10.766;2023-04-28T08:05:42;98.40;;;6.70;;
3700;SDS011;1866;48.374;10.766;2023-04-28T08:08:09;98.47;;;6.90;;
3700;SDS011;1866;48.374;10.766;2023-04-28T08:10:36;98.57;;;7.00;;
3700;SDS011;1866;48.374;10.766;2023-04-28T08:13:05;103.87;;;7.40;;
3700;SDS011;1866;48.374;10.766;2023-04-28T08:15:32;98.67;;;7.00;;
3700;SDS011;1866;48.374;10.766;2023-04-28T08:18:00;99.47;;;7.27;;
3700;SDS011;1866;48.374;10.766;2023-04-28T08:20:27;98.40;;;6.80;;
3700;SDS011;1866;48.374;10.766;2023-04-28T08:22:56;100.40;;;6.60;;
3700;SDS011;1866;48.374;10.766;2023-04-28T08:25:23;98.67;;;6.60;;
3700;SDS011;1866;48.374;10.766;2023-04-28T08:27:51;98.37;;;6.40;;
3700;SDS011;1866;48.374;10.766;2023-04-28T08:30:19;96.77;;;6.20;;
3700;SDS011;1866;48.374;10.766;2023-04-28T08:32:47;102.03;;;6.30;;
3700;SDS011;1866;48.374;10.766;2023-04-28T08:35:15;98.67;;;6.80;;
3700;SDS011;1866;48.374;10.766;2023-04-28T08:37:43;98.30;;;6.30;;
3700;SDS011;1866;48.374;10.766;2023-04-28T08:40:10;98.67;;;6.40;;
3700;SDS011;1866;48.374;10.766;2023-04-28T08:42:38;99.67;;;6.67;;
3700;SDS011;1866;48.374;10.766;2023-04-28T08:45:06;98.70;;;6.50;;
3700;SDS011;1866;48.374;10.766;2023-04-28T08:47:33;98.97;;;6.20;;
3700;SDS011;1866;48.374;10.766;2023-04-28T08:50:02;99.00;;;6.50;;
3700;SDS011;1866;48.374;10.766;2023-04-28T08:52:31;98.00;;;6.27;;
3700;SDS011;1866;48.374;10.766;2023-04-28T08:54:59;97.87;;;6.30;;
3700;SDS011;1866;48.374;10.766;2023-04-28T08:57:27;98.10;;;6.40;;
3700;SDS011;1866;48.374;10.766;2023-04-28T09:00:00;97.80;;;6.20;;
3700;SDS011;1866;48.374;10.766;2023-04-28T09:02:28;98.47;;;6.33;;
3700;SDS011;1866;48.374;10.766;2023-04-28T09:04:54;97.67;;;6.57;;
3700;SDS011;1866;48.374;10.766;2023-04-28T09:07:21;102.50;;;6.77;;
3700;SDS011;1866;48.374;10.766;2023-04-28T09:09:49;98.57;;;6.90;;
3700;SDS011;1866;48.374;10.766;2023-04-28T09:12:36;101.10;;;7.20;;
3700;SDS011;1866;48.374;10.766;2023-04-28T09:15:03;98.87;;;6.93;;
3700;SDS011;1866;48.374;10.766;2023-04-28T09:17:34;99.70;;;6.70;;
3700;SDS011;1866;48.374;10.766;2023-04-28T09:20:18;99.60;;;6.77;;
3700;SDS011;1866;48.374;10.766;2023-04-28T09:22:45;99.90;;;6.97;;
3700;SDS011;1866;48.374;10.766;2023-04-28T09:25:14;100.07;;;7.77;;
3700;SDS011;1866;48.374;10.766;2023-04-28T09:27:41;99.40;;;7.10;;
3700;SDS011;1866;48.374;10.766;2023-04-28T09:30:08;99.03;;;6.60;;
3700;SDS011;1866;48.374;10.766;2023-04-28T09:32:35;102.27;;;8.43;;
3700;SDS011;1866;48.374;10.766;2023-04-28T09:35:02;98.67;;;7.10;;
3700;SDS011;1866;48.374;10.766;2023-04-28T09:37:31;99.90;;;6.73;;
3700;SDS011;1866;48.374;10.766;2023-04-28T09:40:02;98.97;;;7.43;;
3700;SDS011;1866;48.374;10.766;2023-04-28T09:42:33;98.57;;;6.93;;
3700;SDS011;1866;48.374;10.766;2023-04-28T09:45:01;101.00;;;8.10;;
3700;SDS011;1866;48.374;10.766;2023-04-28T09:47:29;99.33;;;7.50;;
3700;SDS011;1866;48.374;10.766;2023-04-28T09:49:57;99.40;;;7.13;;
3700;SDS011;1866;48.374;10.766;2023-04-28T09:52:25;99.00;;;7.10;;
3700;SDS011;1866;48.374;10.766;2023-04-28T09:54:53;99.17;;;7.53;;
3700;SDS011;1866;48.374;10.766;2023-04-28T09:57:21;100.43;;;8.03;;
3700;SDS011;1866;48.374;10.766;2023-04-28T09:59:50;100.27;;;7.53;;
3700;SDS011;1866;48.374;10.766;2023-04-28T10:02:18;100.30;;;7.60;;
3700;SDS011;1866;48.374;10.766;2023-04-28T10:04:47;100.63;;;8.30;;
3700;SDS011;1866;48.374;10.766;2023-04-28T10:07:15;100.10;;;7.43;;
3700;SDS011;1866;48.374;10.766;2023-04-28T10:09:44;100.13;;;7.17;;
3700;SDS011;1866;48.374;10.766;2023-04-28T10:12:14;100.80;;;7.70;;
3700;SDS011;1866;48.374;10.766;2023-04-28T10:14:42;100.93;;;7.60;;
3700;SDS011;1866;48.374;10.766;2023-04-28T10:17:11;102.67;;;7.77;;
3700;SDS011;1866;48.374;10.766;2023-04-28T10:19:39;100.37;;;7.80;;
3700;SDS011;1866;48.374;10.766;2023-04-28T10:22:11;101.00;;;8.13;;
3700;SDS011;1866;48.374;10.766;2023-04-28T10:24:59;101.20;;;8.40;;
3700;SDS011;1866;48.374;10.766;2023-04-28T10:27:38;104.70;;;8.30;;
3700;SDS011;1866;48.374;10.766;2023-04-28T10:30:11;100.37;;;8.33;;
3700;SDS011;1866;48.374;10.766;2023-04-28T10:32:40;100.57;;;7.77;;
3700;SDS011;1866;48.374;10.766;2023-04-28T10:38:07;103.83;;;8.00;;
3700;SDS011;1866;48.374;10.766;2023-04-28T10:40:36;101.27;;;8.00;;
3700;SDS011;1866;48.374;10.766;2023-04-28T10:43:05;100.60;;;8.30;;
3700;SDS011;1866;48.374;10.766;2023-04-28T10:51:29;101.27;;;7.87;;
3700;SDS011;1866;48.374;10.766;2023-04-28T10:54:09;101.77;;;8.07;;
3700;SDS011;1866;48.374;10.766;2023-04-28T10:59:44;101.70;;;8.17;;
3700;SDS011;1866;48.374;10.766;2023-04-28T11:05:13;101.97;;;8.60;;
3700;SDS011;1866;48.374;10.766;2023-04-28T11:13:52;103.27;;;8.73;;
3700;SDS011;1866;48.374;10.766;2023-04-28T11:16:21;103.23;;;9.00;;
3700;SDS011;1866;48.374;10.766;2023-04-28T11:18:57;103.47;;;8.77;;
3700;SDS011;1866;48.374;10.766;2023-04-28T11:21:30;106.60;;;9.30;;
3700;SDS011;1866;48.374;10.766;2023-04-28T11:23:57;106.70;;;9.47;;
3700;SDS011;1866;48.374;10.766;2023-04-28T11:26:24;103.40;;;8.70;;
3700;SDS011;1866;48.374;10.766;2023-04-28T11:28:54;104.27;;;9.20;;
3700;SDS011;1866;48.374;10.766;2023-04-28T11:31:23;103.93;;;8.80;;
3700;SDS011;1866;48.374;10.766;2023-04-28T11:33:52;103.40;;;8.73;;
3700;SDS011;1866;48.374;10.766;2023-04-28T11:36:22;104.20;;;8.87;;
3700;SDS011;1866;48.374;10.766;2023-04-28T11:38:59;102.70;;;8.60;;
3700;SDS011;1866;48.374;10.766;2023-04-28T11:41:29;104.90;;;9.50;;
3700;SDS011;1866;48.374;10.766;2023-04-28T11:43:56;103.87;;;9.20;;
3700;SDS011;1866;48.374;10.766;2023-04-28T11:46:23;104.73;;;8.77;;
3700;SDS011;1866;48.374;10.766;2023-04-28T11:49:00;103.87;;;8.47;;
3700;SDS011;1866;48.374;10.766;2023-04-28T11:51:33;102.93;;;8.53;;
3700;SDS011;1866;48.374;10.766;2023-04-28T11:54:02;103.57;;;8.60;;
3700;SDS011;1866;48.374;10.766;2023-04-28T11:56:30;102.70;;;8.07;;
3700;SDS011;1866;48.374;10.766;2023-04-28T11:59:03;102.90;;;8.50;;
3700;SDS011;1866;48.374;10.766;2023-04-28T12:01:32;103.77;;;8.60;;
3700;SDS011;1866;48.374;10.766;2023-04-28T12:04:01;103.20;;;8.30;;
3700;SDS011;1866;48.374;10.766;2023-04-28T12:06:28;105.50;;;8.30;;
3700;SDS011;1866;48.374;10.766;2023-04-28T12:08:57;103.30;;;8.80;;
3700;SDS011;1866;48.374;10.766;2023-04-28T12:11:28;102.17;;;8.37;;
3700;SDS011;1866;48.374;10.766;2023-04-28T12:14:02;103.83;;;9.23;;
3700;SDS011;1866;48.374;10.766;2023-04-28T12:16:36;103.20;;;8.63;;
3700;SDS011;1866;48.374;10.766;2023-04-28T12:19:07;102.57;;;7.90;;
3700;SDS011;1866;48.374;10.766;2023-04-28T12:21:35;102.10;;;7.80;;
3700;SDS011;1866;48.374;10.766;2023-04-28T12:24:15;102.97;;;7.90;;
3700;SDS011;1866;48.374;10.766;2023-04-28T12:26:43;104.10;;;8.20;;
3700;SDS011;1866;48.374;10.766;2023-04-28T12:32:02;103.07;;;8.20;;
3700;SDS011;1866;48.374;10.766;2023-04-28T12:34:29;103.67;;;8.80;;
3700;SDS011;1866;48.374;10.766;2023-04-28T12:36:57;102.37;;;7.83;;
3700;SDS011;1866;48.374;10.766;2023-04-28T12:39:28;102.57;;;8.10;;
3700;SDS011;1866;48.374;10.766;2023-04-28T12:41:55;101.27;;;8.10;;
3700;SDS011;1866;48.374;10.766;2023-04-28T12:44:23;102.60;;;8.20;;
3700;SDS011;1866;48.374;10.766;2023-04-28T12:46:52;101.57;;;8.10;;
3700;SDS011;1866;48.374;10.766;2023-04-28T12:49:19;103.07;;;8.03;;
3700;SDS011;1866;48.374;10.766;2023-04-28T12:51:47;101.70;;;7.77;;
3700;SDS011;1866;48.374;10.766;2023-04-28T12:54:13;101.87;;;7.90;;
3700;SDS011;1866;48.374;10.766;2023-04-28T12:56:42;101.80;;;8.13;;
3700;SDS011;1866;48.374;10.766;2023-04-28T12:59:09;103.20;;;8.60;;
3700;SDS011;1866;48.374;10.766;2023-04-28T13:01:35;103.80;;;8.10;;
3700;SDS011;1866;48.374;10.766;2023-04-28T13:04:02;102.27;;;8.13;;
3700;SDS011;1866;48.374;10.766;2023-04-28T13:06:33;102.63;;;7.73;;
3700;SDS011;1866;48.374;10.766;2023-04-28T13:09:00;101.17;;;7.63;;
3700;SDS011;1866;48.374;10.766;2023-04-28T13:11:27;101.93;;;7.70;;
3700;SDS011;1866;48.374;10.766;2023-04-28T13:13:56;101.97;;;7.50;;
3700;SDS011;1866;48.374;10.766;2023-04-28T13:16:23;101.67;;;7.57;;
3700;SDS011;1866;48.374;10.766;2023-04-28T13:18:54;101.80;;;7.50;;
3700;SDS011;1866;48.374;10.766;2023-04-28T13:21:22;102.47;;;7.40;;
3700;SDS011;1866;48.374;10.766;2023-04-28T13:23:50;102.50;;;7.67;;
3700;SDS011;1866;48.374;10.766;2023-04-28T13:26:17;102.27;;;7.97;;
3700;SDS011;1866;48.374;10.766;2023-04-28T13:28:45;102.07;;;7.57;;
3700;SDS011;1866;48.374;10.766;2023-04-28T13:31:13;102.30;;;7.60;;
3700;SDS011;1866;48.374;10.766;2023-04-28T13:33:40;101.07;;;7.47;;
3700;SDS011;1866;48.374;10.766;2023-04-28T13:36:07;101.37;;;7.10;;
3700;SDS011;1866;48.374;10.766;2023-04-28T13:38:34;104.63;;;8.00;;
3700;SDS011;1866;48.374;10.766;2023-04-28T13:41:01;102.30;;;7.43;;
3700;SDS011;1866;48.374;10.766;2023-04-28T13:43:28;102.90;;;7.30;;
3700;SDS011;1866;48.374;10.766;2023-04-28T13:45:56;101.67;;;6.90;;
3700;SDS011;1866;48.374;10.766;2023-04-28T13:48:24;101.53;;;7.30;;
3700;SDS011;1866;48.374;10.766;2023-04-28T13:50:53;100.97;;;6.87;;
3700;SDS011;1866;48.374;10.766;2023-04-28T13:53:21;102.47;;;7.03;;
3700;SDS011;1866;48.374;10.766;2023-04-28T13:55:48;101.37;;;6.80;;
3700;SDS011;1866;48.374;10.766;2023-04-28T13:58:18;101.10;;;6.90;;
3700;SDS011;1866;48.374;10.766;2023-04-28T14:00:44;102.33;;;7.17;;
3700;SDS011;1866;48.374;10.766;2023-04-28T14:03:11;101.67;;;6.80;;
3700;SDS011;1866;48.374;10.766;2023-04-28T14:05:40;102.17;;;6.90;;
3700;SDS011;1866;48.374;10.766;2023-04-28T14:08:08;101.13;;;6.77;;
3700;SDS011;1866;48.374;10.766;2023-04-28T14:10:35;102.90;;;7.33;;
3700;SDS011;1866;48.374;10.766;2023-04-28T14:13:02;100.57;;;6.87;;
3700;SDS011;1866;48.374;10.766;2023-04-28T14:15:29;100.57;;;6.63;;
3700;SDS011;1866;48.374;10.766;2023-04-28T14:17:56;100.87;;;6.97;;
3700;SDS011;1866;48.374;10.766;2023-04-28T14:20:23;102.23;;;6.90;;
3700;SDS011;1866;48.374;10.766;2023-04-28T14:22:51;100.30;;;6.90;;
3700;SDS011;1866;48.374;10.766;2023-04-28T14:25:18;100.80;;;6.73;;
3700;SDS011;1866;48.374;10.766;2023-04-28T14:27:46;101.67;;;6.97;;
3700;SDS011;1866;48.374;10.766;2023-04-28T14:30:14;100.97;;;6.70;;
3700;SDS011;1866;48.374;10.766;2023-04-28T14:32:41;101.90;;;7.13;;
3700;SDS011;1866;48.374;10.766;2023-04-28T14:35:10;100.20;;;7.00;;
3700;SDS011;1866;48.374;10.766;2023-04-28T14:37:39;106.63;;;6.87;;
3700;SDS011;1866;48.374;10.766;2023-04-28T14:40:08;100.07;;;6.83;;
3700;SDS011;1866;48.374;10.766;2023-04-28T14:42:35;101.30;;;6.77;;
3700;SDS011;1866;48.374;10.766;2023-04-28T14:45:03;101.00;;;7.13;;
3700;SDS011;1866;48.374;10.766;2023-04-28T14:47:31;102.90;;;7.50;;
3700;SDS011;1866;48.374;10.766;2023-04-28T14:49:58;100.37;;;6.77;;
3700;SDS011;1866;48.374;10.766;2023-04-28T14:52:25;100.97;;;6.90;;
3700;SDS011;1866;48.374;10.766;2023-04-28T14:54:53;101.77;;;7.10;;
3700;SDS011;1866;48.374;10.766;2023-04-28T14:57:22;101.60;;;7.40;;
3700;SDS011;1866;48.374;10.766;2023-04-28T14:59:49;102.73;;;7.77;;
3700;SDS011;1866;48.374;10.766;2023-04-28T15:02:17;102.60;;;7.43;;
3700;SDS011;1866;48.374;10.766;2023-04-28T15:04:44;100.10;;;6.93;;
3700;SDS011;1866;48.374;10.766;2023-04-28T15:07:11;100.90;;;7.53;;